Time;durP1;ratioP1;P1;durP2;ratioP2;P2;SDS_P1;SDS_P2;PMS_P1;PMS_P2;Temp;Humidity;BMP_temperature;BMP_pressure;BME280_temperature;BME280_humidity;BME280_pressure;Samples;Min_cycle;Max_cycle;Signal;HPM_P1;HPM_P2
2023/04/16 00:01:49;;;;;;;1.80;1.70;;;;;;;8.31;100.00;96613.69;5076142;28;20199;-59
2023/04/16 00:04:16;;;;;;;2.17;1.97;;;;;;;8.31;100.00;96613.69;5069184;28;20204;-59
2023/04/16 00:06:42;;;;;;;2.40;2.27;;;;;;;8.28;100.00;96619.19;5073063;28;20195;-58
2023/04/16 00:09:13;;;;;;;1.80;1.70;;;;;;;8.26;100.00;96614.03;5061483;28;20214;-59
2023/04/16 00:11:40;;;;;;;1.90;1.77;;;;;;;8.33;100.00;96617.00;5039210;28;20629;-58
2023/04/16 00:14:06;;;;;;;1.93;1.83;;;;;;;8.25;100.00;96620.28;5036989;28;20239;-59
2023/04/16 00:16:33;;;;;;;2.37;2.17;;;;;;;8.31;100.00;96611.06;5038395;28;20207;-58
2023/04/16 00:18:59;;;;;;;1.77;1.67;;;;;;;8.28;100.00;96613.91;5035881;28;20659;-58
2023/04/16 00:21:26;;;;;;;1.93;1.83;;;;;;;8.33;100.00;96617.00;5036387;28;20211;-58
2023/04/16 00:23:52;;;;;;;2.20;2.10;;;;;;;8.32;100.00;96620.63;5051863;28;20211;-58
2023/04/16 00:26:20;;;;;;;1.87;1.77;;;;;;;8.30;100.00;96612.00;5037514;28;20280;-58
2023/04/16 00:28:47;;;;;;;1.90;1.80;;;;;;;8.32;100.00;96615.38;5036268;28;20218;-58
2023/04/16 00:31:13;;;;;;;2.13;2.03;;;;;;;8.30;100.00;96615.47;5049735;28;20223;-59
2023/04/16 00:33:39;;;;;;;2.27;2.03;;;;;;;8.32;100.00;96605.66;5047072;28;20655;-59
2023/04/16 00:36:06;;;;;;;2.17;2.07;;;;;;;8.32;100.00;96610.09;5050668;28;20211;-59
2023/04/16 00:38:33;;;;;;;2.10;2.00;;;;;;;8.33;100.00;96614.38;5040322;28;20215;-58
2023/04/16 00:41:01;;;;;;;2.20;2.10;;;;;;;8.30;100.00;96615.47;5049317;28;20216;-59
2023/04/16 00:43:30;;;;;;;2.40;2.03;;;;;;;8.28;100.00;96616.56;5034275;28;20204;-58
2023/04/16 00:45:57;;;;;;;2.13;1.93;;;;;;;8.30;100.00;96617.28;5051379;28;20208;-59
2023/04/16 00:48:26;;;;;;;2.30;2.13;;;;;;;8.29;100.00;96613.00;5035225;28;20273;-59
2023/04/16 00:50:54;;;;;;;1.90;1.80;;;;;;;8.30;100.00;96612.00;5048874;28;20223;-59
2023/04/16 00:53:20;;;;;;;2.10;2.00;;;;;;;8.28;100.00;96614.78;5048799;28;20227;-58
2023/04/16 00:55:46;;;;;;;2.23;2.13;;;;;;;8.33;100.00;96612.59;5055659;28;20272;-59
2023/04/16 00:58:13;;;;;;;2.10;2.00;;;;;;;8.29;100.00;96615.63;5041870;28;20215;-59
2023/04/16 01:00:41;;;;;;;3.00;2.80;;;;;;;8.36;100.00;96616.78;5042321;28;20211;-58
2023/04/16 01:03:07;;;;;;;2.40;2.30;;;;;;;8.31;100.00;96614.53;5041003;28;20218;-59
2023/04/16 01:05:35;;;;;;;2.57;2.47;;;;;;;8.38;100.00;96620.09;5042491;28;20214;-58
2023/04/16 01:08:01;;;;;;;3.00;2.70;;;;;;;8.41;100.00;96619.84;5050888;28;20647;-58
2023/04/16 01:10:28;;;;;;;2.63;2.53;;;;;;;8.47;100.00;96608.78;5055077;28;20680;-59
2023/04/16 01:12:55;;;;;;;2.63;2.47;;;;;;;8.45;100.00;96615.97;5041133;28;20208;-59
2023/04/16 01:15:21;;;;;;;2.80;2.70;;;;;;;8.37;100.00;96607.88;5044582;28;20230;-59
2023/04/16 01:17:49;;;;;;;2.40;2.30;;;;;;;8.41;100.00;96611.94;5054770;28;20472;-60
2023/04/16 01:20:15;;;;;;;3.00;2.70;;;;;;;8.35;100.00;96620.38;5047311;28;20199;-58
2023/04/16 01:22:43;;;;;;;3.10;2.80;;;;;;;8.32;100.00;96615.38;5048070;28;20199;-59
2023/04/16 01:25:14;;;;;;;3.13;2.83;;;;;;;8.34;100.00;96621.31;5056693;28;20202;-58
2023/04/16 01:27:40;;;;;;;3.23;2.93;;;;;;;8.36;100.00;96619.41;5038603;28;20223;-59
2023/04/16 01:30:08;;;;;;;3.17;2.97;;;;;;;8.35;100.00;96625.63;5045081;28;20238;-59
2023/04/16 01:32:34;;;;;;;3.60;3.10;;;;;;;8.38;100.00;96622.75;5037806;28;20211;-59
2023/04/16 01:35:00;;;;;;;3.47;3.17;;;;;;;8.42;100.00;96629.44;5034123;28;20239;-58
2023/04/16 01:37:27;;;;;;;3.20;3.00;;;;;;;8.44;100.00;96625.69;5034867;28;20212;-58
2023/04/16 01:39:55;;;;;;;2.70;2.60;;;;;;;8.40;100.00;96626.06;5047205;28;20221;-58
2023/04/16 01:42:21;;;;;;;3.23;3.03;;;;;;;8.43;100.00;96628.47;5054566;28;20330;-59
2023/04/16 01:44:49;;;;;;;3.00;2.80;;;;;;;8.41;100.00;96630.38;5052854;28;20567;-59
2023/04/16 01:47:16;;;;;;;2.83;2.73;;;;;;;8.40;100.00;96628.69;5053508;28;20214;-59
2023/04/16 01:49:47;;;;;;;3.20;3.00;;;;;;;8.36;100.00;96633.41;5034377;28;20277;-58
2023/04/16 01:52:13;;;;;;;2.90;2.80;;;;;;;8.38;100.00;96630.66;5039321;28;20231;-58
2023/04/16 01:54:39;;;;;;;3.20;3.00;;;;;;;8.42;100.00;96632.91;5042948;28;20235;-58
2023/04/16 01:57:07;;;;;;;3.10;2.90;;;;;;;8.39;100.00;96634.97;5034866;28;20208;-59
2023/04/16 01:59:34;;;;;;;3.20;3.00;;;;;;;8.37;100.00;96639.50;5046446;28;20202;-58
2023/04/16 02:02:07;;;;;;;3.30;3.10;;;;;;;8.36;100.00;96632.59;5047713;28;20207;-58
2023/04/16 02:04:33;;;;;;;2.97;2.77;;;;;;;8.35;100.00;96641.44;5034332;28;20651;-58
2023/04/16 02:07:00;;;;;;;3.33;3.13;;;;;;;8.35;100.00;96636.19;5040652;28;20214;-58
2023/04/16 02:09:26;;;;;;;3.87;3.50;;;;;;;8.31;100.00;96637.41;5041851;28;20215;-58
2023/04/16 02:11:53;;;;;;;3.27;3.07;;;;;;;8.28;100.00;96638.50;5040715;28;20210;-59
2023/04/16 02:14:24;;;;;;;3.40;3.20;;;;;;;8.36;100.00;96643.94;5053812;28;20235;-59
2023/04/16 02:16:50;;;;;;;3.50;3.30;;;;;;;8.32;100.00;96644.34;5041648;28;20207;-58
2023/04/16 02:19:18;;;;;;;3.47;3.27;;;;;;;8.31;100.00;96650.56;5041542;28;20226;-59
2023/04/16 02:21:44;;;;;;;3.10;2.90;;;;;;;8.32;100.00;96652.25;5051684;28;20211;-58
2023/04/16 02:24:14;;;;;;;3.50;3.30;;;;;;;8.39;100.00;96648.13;5057926;28;20203;-58
2023/04/16 02:26:41;;;;;;;3.47;3.20;;;;;;;8.31;100.00;96646.16;5059662;28;20203;-59
2023/04/16 02:29:08;;;;;;;4.00;3.67;;;;;;;8.25;100.00;96640.53;5046177;28;20319;-58
2023/04/16 02:31:35;;;;;;;3.90;3.70;;;;;;;8.24;100.00;96649.38;5051119;28;20214;-58
2023/04/16 02:34:02;;;;;;;3.70;3.50;;;;;;;8.27;100.00;96649.97;5037660;28;20301;-59
2023/04/16 02:36:30;;;;;;;3.63;3.43;;;;;;;8.25;100.00;96648.44;5047052;28;20218;-59
2023/04/16 02:38:56;;;;;;;4.37;4.07;;;;;;;8.22;100.00;96652.13;5044458;28;20241;-59
2023/04/16 02:41:23;;;;;;;4.10;3.80;;;;;;;8.22;100.00;96652.13;5059521;28;20214;-58
2023/04/16 02:43:49;;;;;;;4.07;3.73;;;;;;;8.23;100.00;96658.25;5062315;28;20214;-58
2023/04/16 02:46:16;;;;;;;3.47;3.27;;;;;;;8.21;100.00;96655.75;5056808;28;20517;-59
2023/04/16 02:48:43;;;;;;;3.60;3.40;;;;;;;8.19;100.00;96651.56;5051237;28;20207;-59
2023/04/16 02:51:10;;;;;;;3.80;3.50;;;;;;;8.11;100.00;96656.66;5047110;28;20207;-59
2023/04/16 02:53:36;;;;;;;9.47;7.77;;;;;;;8.17;100.00;96653.50;5041745;28;20211;-59
2023/04/16 02:56:03;;;;;;;8.67;7.80;;;;;;;8.14;100.00;96653.75;5046969;28;20635;-58
2023/04/16 02:58:29;;;;;;;4.90;4.50;;;;;;;8.13;100.00;96657.34;5041302;28;20257;-59
2023/04/16 03:00:55;;;;;;;4.73;4.43;;;;;;;8.17;100.00;96648.22;5047766;28;20211;-60
2023/04/16 03:03:22;;;;;;;3.93;3.67;;;;;;;8.17;100.00;96651.69;5054665;28;20213;-58
2023/04/16 03:05:50;;;;;;;4.30;4.00;;;;;;;8.16;100.00;96649.19;5037810;28;20211;-59
2023/04/16 03:08:17;;;;;;;3.90;3.60;;;;;;;8.22;100.00;96657.41;5050185;28;20211;-59
2023/04/16 03:10:45;;;;;;;3.70;3.50;;;;;;;8.18;100.00;96652.53;5048003;28;20223;-59
2023/04/16 03:13:13;;;;;;;4.07;3.70;;;;;;;8.26;100.00;96650.06;5037471;28;20207;-59
2023/04/16 03:15:39;;;;;;;3.93;3.73;;;;;;;8.19;100.00;96651.56;5049634;28;20227;-59
2023/04/16 03:18:06;;;;;;;4.63;4.23;;;;;;;8.15;100.00;96658.88;5043311;28;20632;-59
2023/04/16 03:20:32;;;;;;;4.20;3.90;;;;;;;8.14;100.00;96649.31;5057231;28;20210;-58
2023/04/16 03:23:00;;;;;;;4.10;3.80;;;;;;;8.14;100.00;96654.59;5043448;28;20204;-58
2023/04/16 03:25:27;;;;;;;4.40;4.00;;;;;;;8.10;100.00;96657.59;5037525;28;20215;-59
2023/04/16 03:27:53;;;;;;;4.13;3.93;;;;;;;8.10;100.00;96660.22;5037055;28;20544;-60
2023/04/16 03:30:19;;;;;;;4.23;3.93;;;;;;;8.04;100.00;96656.31;5037124;28;20215;-59
2023/04/16 03:32:46;;;;;;;4.17;3.90;;;;;;;8.14;100.00;96648.50;5054959;28;20230;-59
2023/04/16 03:35:12;;;;;;;5.07;4.50;;;;;;;8.14;100.00;96659.03;5045135;28;20675;-59
2023/04/16 03:37:39;;;;;;;4.50;4.20;;;;;;;8.15;100.00;96665.97;5050312;28;20203;-59
2023/04/16 03:40:08;;;;;;;4.30;4.00;;;;;;;8.12;100.00;96672.31;5037138;28;20346;-59
2023/04/16 03:42:35;;;;;;;4.53;4.23;;;;;;;8.15;100.00;96671.25;5042117;28;20214;-59
2023/04/16 03:45:01;;;;;;;5.27;4.87;;;;;;;8.15;100.00;96660.69;5062878;28;20623;-59
2023/04/16 03:47:27;;;;;;;4.77;4.37;;;;;;;8.16;100.00;96665.81;5039280;28;20219;-59
2023/04/16 03:49:54;;;;;;;4.60;4.30;;;;;;;8.18;100.00;96670.97;5036684;28;20208;-59
2023/04/16 03:52:20;;;;;;;4.87;4.40;;;;;;;8.10;100.00;96668.97;5041964;28;20234;-58
2023/04/16 03:54:47;;;;;;;5.33;4.83;;;;;;;8.13;100.00;96673.16;5044331;28;20757;-59
2023/04/16 03:57:15;;;;;;;4.90;4.57;;;;;;;8.15;100.00;96669.41;5050231;28;20576;-59
2023/04/16 03:59:41;;;;;;;5.83;5.10;;;;;;;8.13;100.00;96670.50;5036767;28;20207;-58
2023/04/16 04:02:08;;;;;;;5.30;4.90;;;;;;;8.18;100.00;96673.63;5050080;28;20219;-59
2023/04/16 04:04:34;;;;;;;5.17;4.77;;;;;;;8.15;100.00;96668.59;5048455;28;20202;-59
2023/04/16 04:07:00;;;;;;;4.70;4.30;;;;;;;8.20;100.00;96666.41;5052731;28;20589;-58
2023/04/16 04:09:27;;;;;;;4.70;4.37;;;;;;;8.22;100.00;96675.03;5056254;28;20203;-59
2023/04/16 04:11:53;;;;;;;4.80;4.40;;;;;;;8.19;100.00;96673.47;5042654;28;20211;-58
2023/04/16 04:14:21;;;;;;;4.83;4.53;;;;;;;8.23;100.00;96668.78;5045148;28;20239;-58
2023/04/16 04:16:47;;;;;;;4.40;4.10;;;;;;;8.23;100.00;96664.34;5056429;28;20217;-60
2023/04/16 04:19:14;;;;;;;4.70;4.40;;;;;;;8.17;100.00;96669.28;5044222;28;20230;-59
2023/04/16 04:21:40;;;;;;;4.60;4.20;;;;;;;8.15;100.00;96666.78;5056128;28;20234;-58
2023/04/16 04:24:07;;;;;;;4.80;4.40;;;;;;;8.13;100.00;96670.50;5055753;28;20202;-59
2023/04/16 04:26:34;;;;;;;4.73;4.40;;;;;;;8.11;100.00;96669.81;5036067;28;20215;-59
2023/04/16 04:29:01;;;;;;;4.57;4.27;;;;;;;8.10;100.00;96668.97;5036266;28;20218;-59
2023/04/16 04:31:28;;;;;;;4.53;4.23;;;;;;;8.16;100.00;96672.88;5049596;28;20212;-58
2023/04/16 04:33:55;;;;;;;4.30;3.97;;;;;;;8.17;100.00;96664.88;5035425;28;20236;-58
2023/04/16 04:36:21;;;;;;;4.53;4.23;;;;;;;8.18;100.00;96676.25;5042819;28;20227;-58
2023/04/16 04:38:48;;;;;;;4.53;4.23;;;;;;;8.14;100.00;96680.94;5055414;28;20203;-59
2023/04/16 04:41:14;;;;;;;4.63;4.23;;;;;;;8.14;100.00;96685.38;5051369;28;20211;-59
2023/04/16 04:43:41;;;;;;;4.50;4.20;;;;;;;8.16;100.00;96679.00;5048797;28;20214;-58
2023/04/16 04:46:07;;;;;;;4.07;3.77;;;;;;;8.13;100.00;96689.78;5042721;28;20203;-59
2023/04/16 04:48:35;;;;;;;4.87;4.50;;;;;;;8.16;100.00;96683.41;5042029;28;20204;-57
2023/04/16 04:51:03;;;;;;;4.43;4.13;;;;;;;8.12;100.00;96692.53;5039949;28;20560;-58
2023/04/16 04:53:29;;;;;;;4.00;3.70;;;;;;;8.13;100.00;96691.59;5056604;28;20257;-59
2023/04/16 04:55:56;;;;;;;4.13;3.93;;;;;;;8.17;100.00;96693.84;5043905;28;20266;-60
2023/04/16 04:58:22;;;;;;;4.67;4.37;;;;;;;8.12;100.00;96695.16;5041996;28;20208;-59
2023/04/16 05:00:49;;;;;;;4.80;4.50;;;;;;;8.09;100.00;96695.44;5045236;28;20206;-58
2023/04/16 05:03:21;;;;;;;4.43;4.13;;;;;;;8.10;100.00;96695.31;5040909;28;20231;-58
2023/04/16 05:05:49;;;;;;;4.53;4.23;;;;;;;8.11;100.00;96704.91;5035621;28;20211;-59
2023/04/16 05:08:15;;;;;;;3.80;3.60;;;;;;;8.08;100.00;96694.59;5050453;28;20628;-59
2023/04/16 05:10:42;;;;;;;4.40;4.10;;;;;;;8.04;100.00;96700.25;5054575;28;20286;-58
2023/04/16 05:13:08;;;;;;;4.23;3.93;;;;;;;8.07;100.00;96700.84;5055122;28;20211;-58
2023/04/16 05:15:34;;;;;;;4.50;4.20;;;;;;;8.09;100.00;96701.53;5055339;28;20242;-59
2023/04/16 05:18:01;;;;;;;4.47;4.17;;;;;;;8.12;100.00;96708.34;5053878;28;20211;-58
2023/04/16 05:20:27;;;;;;;4.57;4.27;;;;;;;8.14;100.00;96707.28;5044974;28;20207;-60
2023/04/16 05:22:55;;;;;;;4.37;4.07;;;;;;;8.16;100.00;96704.50;5048013;28;20208;-59
2023/04/16 05:25:22;;;;;;;4.33;4.03;;;;;;;8.10;100.00;96711.13;5035299;28;20213;-59
2023/04/16 05:27:48;;;;;;;4.23;3.93;;;;;;;8.15;100.00;96718.66;5048625;28;20246;-58
2023/04/16 05:30:17;;;;;;;4.13;3.80;;;;;;;8.16;100.00;96712.41;5035452;28;20536;-59
2023/04/16 05:32:43;;;;;;;3.93;3.70;;;;;;;8.16;100.00;96720.28;5052927;28;20227;-58
2023/04/16 05:35:10;;;;;;;4.03;3.83;;;;;;;8.16;100.00;96715.88;5046753;28;20247;-59
2023/04/16 05:37:36;;;;;;;3.93;3.70;;;;;;;8.17;100.00;96719.34;5061297;28;20203;-59
2023/04/16 05:40:05;;;;;;;3.90;3.70;;;;;;;8.18;100.00;96724.50;5062726;28;20202;-58
2023/04/16 05:42:31;;;;;;;4.10;3.80;;;;;;;8.16;100.00;96715.03;5049626;28;20287;-58
2023/04/16 05:44:58;;;;;;;3.83;3.53;;;;;;;8.16;100.00;96720.28;5046274;28;20229;-58
2023/04/16 05:47:25;;;;;;;4.00;3.70;;;;;;;8.18;100.00;96724.50;5055734;28;20285;-59
2023/04/16 05:49:51;;;;;;;3.67;3.47;;;;;;;8.20;100.00;96727.84;5042327;28;20203;-58
2023/04/16 05:52:17;;;;;;;3.80;3.37;;;;;;;8.20;100.00;96722.56;5048076;28;20655;-58
2023/04/16 05:54:44;;;;;;;3.93;3.73;;;;;;;8.23;100.00;96729.38;5039609;28;20215;-59
2023/04/16 05:57:13;;;;;;;3.40;3.20;;;;;;;8.25;100.00;96725.66;5064303;28;20218;-59
2023/04/16 05:59:39;;;;;;;3.77;3.43;;;;;;;8.23;100.00;96724.09;5066103;28;20211;-59
2023/04/16 06:02:06;;;;;;;3.33;3.13;;;;;;;8.22;100.00;96736.44;5065827;28;20191;-58
2023/04/16 06:04:34;;;;;;;3.80;3.50;;;;;;;8.23;100.00;96737.28;5076531;28;20209;-59
2023/04/16 06:07:01;;;;;;;3.40;3.20;;;;;;;8.27;100.00;96738.69;5062545;28;20224;-57
2023/04/16 06:09:27;;;;;;;3.53;3.23;;;;;;;8.25;100.00;96740.63;5063564;28;20220;-59
2023/04/16 06:11:53;;;;;;;3.20;3.00;;;;;;;8.23;100.00;96742.53;5053665;28;20203;-59
2023/04/16 06:14:21;;;;;;;2.73;2.63;;;;;;;8.24;100.00;96738.94;5058255;28;20214;-60
2023/04/16 06:16:48;;;;;;;2.63;2.53;;;;;;;8.25;100.00;96740.63;5063384;28;20570;-59
2023/04/16 06:19:14;;;;;;;2.53;2.43;;;;;;;8.19;100.00;96749.03;5058773;28;20237;-58
2023/04/16 06:21:41;;;;;;;2.70;2.50;;;;;;;8.20;100.00;96748.06;5034857;28;20216;-59
2023/04/16 06:24:09;;;;;;;2.40;2.30;;;;;;;8.22;100.00;96746.16;5051495;28;20603;-59
2023/04/16 06:26:35;;;;;;;2.47;2.37;;;;;;;8.20;100.00;96745.44;5054558;28;20237;-59
2023/04/16 06:29:02;;;;;;;2.27;2.17;;;;;;;8.23;100.00;96753.06;5054342;28;20210;-59
2023/04/16 06:31:30;;;;;;;2.57;2.47;;;;;;;8.22;100.00;96752.22;5054535;28;20614;-59
2023/04/16 06:33:56;;;;;;;2.27;2.17;;;;;;;8.20;100.00;96748.06;5053692;28;20321;-59
2023/04/16 06:36:23;;;;;;;2.40;2.30;;;;;;;8.22;100.00;96756.69;5054196;28;20226;-59
2023/04/16 06:38:49;;;;;;;2.30;2.20;;;;;;;8.22;100.00;96756.69;5053976;28;20203;-59
2023/04/16 06:41:16;;;;;;;2.20;2.10;;;;;;;8.14;100.00;96759.13;5054283;28;20272;-59
2023/04/16 06:43:42;;;;;;;2.10;2.00;;;;;;;8.18;100.00;96765.81;5054124;28;20222;-58
2023/04/16 06:46:09;;;;;;;1.60;1.60;;;;;;;8.15;100.00;96771.31;5047195;28;20574;-59
2023/04/16 06:48:37;;;;;;;2.23;2.03;;;;;;;8.10;100.00;96763.78;5048379;28;20215;-59
2023/04/16 06:51:03;;;;;;;2.30;2.20;;;;;;;8.11;100.00;96764.63;5055473;28;20199;-59
2023/04/16 06:53:30;;;;;;;1.73;1.63;;;;;;;8.11;100.00;96764.63;5054213;28;20215;-59
2023/04/16 06:55:56;;;;;;;1.60;1.60;;;;;;;8.09;100.00;96772.66;5053938;28;20234;-59
2023/04/16 06:58:23;;;;;;;1.83;1.73;;;;;;;8.07;100.00;96773.75;5054925;28;20209;-59
2023/04/16 07:00:49;;;;;;;1.90;1.80;;;;;;;8.00;100.00;96779.50;5054494;28;20268;-59
2023/04/16 07:03:16;;;;;;;2.00;1.90;;;;;;;8.10;100.00;96781.38;5053745;28;20207;-58
2023/04/16 07:05:43;;;;;;;1.63;1.53;;;;;;;8.09;100.00;96782.34;5055760;28;20199;-58
2023/04/16 07:08:10;;;;;;;1.50;1.50;;;;;;;8.06;100.00;96779.97;5057485;28;20199;-59
2023/04/16 07:10:37;;;;;;;1.60;1.60;;;;;;;8.07;100.00;96784.28;5057856;28;20219;-59
2023/04/16 07:13:04;;;;;;;1.70;1.60;;;;;;;8.08;100.00;96780.69;5057424;28;20222;-59
2023/04/16 07:15:30;;;;;;;1.93;1.60;;;;;;;8.04;100.00;96789.78;5057569;28;20235;-58
2023/04/16 07:17:57;;;;;;;1.53;1.53;;;;;;;8.04;100.00;96785.38;5055142;28;20687;-59
2023/04/16 07:20:23;;;;;;;1.73;1.63;;;;;;;8.01;100.00;96780.31;5037347;28;20296;-58
2023/04/16 07:22:51;;;;;;;1.37;1.37;;;;;;;8.01;100.00;96780.31;5041384;28;20210;-58
2023/04/16 07:25:18;;;;;;;1.40;1.40;;;;;;;8.10;100.00;96782.22;5039172;28;20204;-59
2023/04/16 07:27:44;;;;;;;2.07;1.60;;;;;;;7.99;100.00;96785.72;5042522;28;20551;-60
2023/04/16 07:30:12;;;;;;;1.43;1.40;;;;;;;8.04;100.00;96787.16;5049040;28;20208;-59
2023/04/16 07:32:38;;;;;;;1.90;1.50;;;;;;;8.00;100.00;96792.69;5051085;28;20285;-58
2023/04/16 07:35:05;;;;;;;1.50;1.40;;;;;;;8.04;100.00;96795.06;5036372;28;20710;-59
2023/04/16 07:37:32;;;;;;;1.50;1.40;;;;;;;7.93;100.00;96793.28;5042181;28;20228;-59
2023/04/16 07:40:01;;;;;;;1.30;1.30;;;;;;;7.89;100.00;96797.97;5057073;28;20346;-59
2023/04/16 07:42:27;;;;;;;1.30;1.30;;;;;;;7.92;100.00;96795.09;5057061;28;20207;-58
2023/04/16 07:44:54;;;;;;;1.20;1.20;;;;;;;7.93;100.00;96796.78;5056314;28;20200;-58
2023/04/16 07:47:21;;;;;;;1.33;1.23;;;;;;;7.99;100.00;96798.91;5045546;28;20211;-58
2023/04/16 07:49:48;;;;;;;1.60;1.30;;;;;;;8.06;100.00;96793.97;5056802;28;20203;-58
2023/04/16 07:52:14;;;;;;;1.70;1.60;;;;;;;8.13;100.00;96802.22;5052845;28;20690;-59
2023/04/16 07:54:41;;;;;;;1.53;1.43;;;;;;;8.14;100.00;96803.88;5045398;28;20636;-59
2023/04/16 07:57:10;;;;;;;1.40;1.30;;;;;;;8.11;100.00;96810.25;5036911;28;20254;-59
2023/04/16 07:59:36;;;;;;;1.30;1.30;;;;;;;8.07;100.00;96810.63;5048202;28;20628;-59
2023/04/16 08:02:04;;;;;;;1.33;1.33;;;;;;;8.13;100.00;96813.59;5052095;28;20204;-58
2023/04/16 08:04:31;;;;;;;1.33;1.33;;;;;;;8.13;100.00;96820.66;5036578;28;20207;-59
2023/04/16 08:06:57;;;;;;;2.10;1.40;;;;;;;8.06;100.00;96825.56;5041824;28;20536;-59
2023/04/16 08:09:27;;;;;;;1.40;1.30;;;;;;;8.08;100.00;96817.56;5044684;28;20664;-59
2023/04/16 08:11:53;;;;;;;1.10;1.10;;;;;;;8.11;100.00;96823.41;5036799;28;20274;-59
2023/04/16 08:14:21;;;;;;;1.20;1.20;;;;;;;8.06;100.00;96822.94;5036755;28;20218;-59
2023/04/16 08:16:48;;;;;;;1.27;1.27;;;;;;;7.97;100.00;96829.75;5036099;28;20227;-59
2023/04/16 08:19:14;;;;;;;1.30;1.30;;;;;;;8.04;100.00;96824.88;5048703;28;20199;-59
2023/04/16 08:21:41;;;;;;;1.47;1.37;;;;;;;8.10;100.00;96834.06;5049562;28;20290;-58
2023/04/16 08:24:07;;;;;;;1.07;1.07;;;;;;;8.04;100.00;96837.19;5040122;28;20204;-59
2023/04/16 08:26:33;;;;;;;1.23;1.10;;;;;;;8.06;100.00;96833.47;5036208;28;20626;-58
2023/04/16 08:29:00;;;;;;;0.80;0.80;;;;;;;8.15;100.00;96837.19;5036576;28;20215;-58
2023/04/16 08:31:28;;;;;;;1.20;1.20;;;;;;;8.11;100.00;96833.13;5056476;28;20202;-60
2023/04/16 08:33:54;;;;;;;1.02;1.02;;;;;;;8.06;100.00;96835.28;5041439;28;20426;-59
2023/04/16 08:36:21;;;;;;;1.47;1.37;;;;;;;8.15;100.00;96834.53;5049041;28;20223;-59
2023/04/16 08:38:47;;;;;;;0.97;0.97;;;;;;;8.11;100.00;96839.22;5036133;28;20238;-59
2023/04/16 08:41:14;;;;;;;1.00;1.00;;;;;;;8.17;100.00;96845.78;5043362;28;20207;-57
2023/04/16 08:43:44;;;;;;;1.20;1.20;;;;;;;8.19;100.00;96841.22;5042327;28;20659;-59
2023/04/16 08:46:11;;;;;;;0.90;0.90;;;;;;;8.20;100.00;96848.16;5063739;28;20215;-59
2023/04/16 08:48:42;;;;;;;1.20;1.10;;;;;;;8.17;100.00;96843.16;5053535;28;20631;-59
2023/04/16 08:51:10;;;;;;;1.20;1.20;;;;;;;8.33;100.00;96848.88;5041268;28;20250;-59
2023/04/16 08:53:43;;;;;;;1.20;1.20;;;;;;;8.42;100.00;96848.16;5055688;28;20214;-59
2023/04/16 08:56:11;;;;;;;1.33;1.33;;;;;;;8.47;100.00;96846.78;5045942;28;20219;-59
2023/04/16 08:58:38;;;;;;;1.57;1.57;;;;;;;8.52;100.00;96850.84;5035695;28;20544;-59
2023/04/16 09:01:05;;;;;;;1.37;1.30;;;;;;;8.55;100.00;96856.72;5046937;28;20211;-59
2023/04/16 09:03:32;;;;;;;1.50;1.50;;;;;;;8.62;100.00;96852.63;5037719;28;20548;-58
2023/04/16 09:06:01;;;;;;;1.20;1.20;;;;;;;8.64;100.00;96861.25;5035199;28;20223;-58
2023/04/16 09:08:29;;;;;;;1.27;1.27;;;;;;;8.68;100.00;96859.19;5049470;28;20230;-58
2023/04/16 09:10:56;;;;;;;1.63;1.60;;;;;;;8.66;100.00;96861.09;5044198;28;20215;-59
2023/04/16 09:13:23;;;;;;;1.50;1.50;;;;;;;8.73;100.00;96863.13;5040063;28;20214;-58
2023/04/16 09:15:52;;;;;;;1.80;1.70;;;;;;;8.75;100.00;96861.19;5043672;28;20212;-58
2023/04/16 09:18:20;;;;;;;1.43;1.43;;;;;;;8.94;100.00;96866.63;5048932;28;20227;-58
2023/04/16 09:20:47;;;;;;;1.33;1.33;;;;;;;8.94;100.00;96871.06;5048374;28;20587;-58
2023/04/16 09:23:15;;;;;;;1.20;1.20;;;;;;;9.10;100.00;96873.25;5038174;28;20211;-58
2023/04/16 09:25:42;;;;;;;1.67;1.57;;;;;;;9.18;100.00;96876.06;5035900;28;20208;-58
2023/04/16 09:28:09;;;;;;;1.67;1.57;;;;;;;9.23;100.00;96876.53;5041882;28;20222;-58
2023/04/16 09:30:36;;;;;;;4.07;3.77;;;;;;;9.29;100.00;96874.22;5041881;28;20208;-58
2023/04/16 09:33:21;;;;;;;2.20;2.10;;;;;;;9.36;100.00;96877.16;5047895;28;20204;-58
2023/04/16 09:35:49;;;;;;;2.53;2.37;;;;;;;9.48;100.00;96881.41;5038500;28;20276;-58
2023/04/16 09:38:17;;;;;;;1.63;1.53;;;;;;;9.31;100.00;96885.50;5044612;28;20699;-58
2023/04/16 09:40:46;;;;;;;1.27;1.27;;;;;;;9.38;100.00;96891.94;5039206;28;20234;-58
2023/04/16 09:43:13;;;;;;;1.50;1.50;;;;;;;9.34;100.00;96885.22;5044074;28;20227;-58
2023/04/16 09:45:50;;;;;;;1.23;1.23;;;;;;;9.41;100.00;96890.81;5048919;28;20211;-58
2023/04/16 09:48:28;;;;;;;1.57;1.40;;;;;;;9.42;100.00;96890.69;5034460;28;20274;-58
2023/04/16 09:50:54;;;;;;;1.60;1.50;;;;;;;9.41;100.00;96891.66;5039306;28;20195;-59
2023/04/16 09:53:25;;;;;;;1.20;1.20;;;;;;;9.39;100.00;96890.09;5044935;28;20265;-58
2023/04/16 09:55:52;;;;;;;2.07;1.97;;;;;;;9.41;100.00;96886.38;5040435;28;20208;-58
2023/04/16 09:58:19;;;;;;;1.40;1.40;;;;;;;9.42;100.00;96892.50;5050950;28;20206;-58
2023/04/16 10:00:45;;;;;;;1.90;1.80;;;;;;;9.42;100.00;96892.50;5046795;28;20206;-58
2023/04/16 10:03:11;;;;;;;1.47;1.47;;;;;;;9.35;100.00;96892.16;5043007;28;20231;-58
2023/04/16 10:05:38;;;;;;;1.90;1.80;;;;;;;9.34;100.00;96892.31;5047962;28;20207;-58
2023/04/16 10:08:11;;;;;;;2.43;1.60;;;;;;;9.39;100.00;96893.56;5047917;28;20199;-58
2023/04/16 10:10:40;;;;;;;4.07;3.77;;;;;;;9.39;100.00;96896.22;5046471;28;20231;-58
2023/04/16 10:13:06;;;;;;;2.27;2.17;;;;;;;9.38;100.00;96899.00;5047294;28;20215;-59
2023/04/16 10:15:33;;;;;;;2.40;2.30;;;;;;;9.33;100.00;96898.53;5052408;28;20211;-59
2023/04/16 10:18:00;;;;;;;2.20;2.10;;;;;;;9.36;100.00;96906.19;5036256;28;20318;-59
2023/04/16 10:20:26;;;;;;;2.47;2.27;;;;;;;9.37;100.00;96899.97;5034599;28;20199;-58
2023/04/16 10:22:54;;;;;;;2.53;2.33;;;;;;;9.36;100.00;96900.91;5050982;28;20654;-59
2023/04/16 10:25:21;;;;;;;2.33;2.23;;;;;;;9.41;100.00;96901.38;5044345;28;20211;-57
2023/04/16 10:27:49;;;;;;;2.50;2.40;;;;;;;9.41;100.00;96901.38;5034705;28;20204;-58
2023/04/16 10:30:17;;;;;;;2.50;2.30;;;;;;;9.54;100.00;96904.66;5034707;28;20242;-58
2023/04/16 10:32:44;;;;;;;2.97;2.47;;;;;;;9.52;100.00;96903.13;5034725;28;20215;-58
2023/04/16 10:35:15;;;;;;;2.40;2.30;;;;;;;9.58;100.00;96900.78;5034151;28;20779;-59
2023/04/16 10:37:43;;;;;;;2.47;2.37;;;;;;;9.53;100.00;96900.31;5034650;28;20227;-59
2023/04/16 10:40:22;;;;;;;2.30;2.17;;;;;;;9.66;100.00;96894.84;5034809;28;20212;-59
2023/04/16 10:42:55;;;;;;;2.47;2.37;;;;;;;9.64;100.00;96902.88;5044865;28;20203;-58
2023/04/16 10:45:26;;;;;;;3.00;2.80;;;;;;;9.66;100.00;96894.84;5060097;28;20190;-58
2023/04/16 10:47:55;;;;;;;3.13;3.00;;;;;;;9.72;100.00;96897.81;5038017;28;20204;-58
2023/04/16 10:50:22;;;;;;;3.03;2.83;;;;;;;9.77;100.00;96900.06;5040504;28;20293;-58
2023/04/16 10:52:48;;;;;;;2.90;2.70;;;;;;;9.79;100.00;96896.31;5049135;28;20219;-59
2023/04/16 10:55:16;;;;;;;3.00;2.80;;;;;;;9.85;100.00;96895.75;5037980;28;20219;-59
2023/04/16 10:57:43;;;;;;;2.77;2.57;;;;;;;9.92;100.00;96896.06;5046803;28;20231;-57
2023/04/16 11:00:22;;;;;;;2.47;2.37;;;;;;;9.92;100.00;96894.25;5056901;28;20546;-59
2023/04/16 11:02:53;;;;;;;2.40;2.30;;;;;;;9.99;100.00;96895.41;5046454;28;20246;-58
2023/04/16 11:05:22;;;;;;;3.00;2.80;;;;;;;10.05;100.00;96887.94;5037823;28;20286;-58
2023/04/16 11:07:48;;;;;;;2.90;2.70;;;;;;;10.04;100.00;96896.81;5049287;28;20274;-58
2023/04/16 11:10:15;;;;;;;3.23;3.03;;;;;;;10.00;100.00;96897.09;5052549;28;20242;-59
2023/04/16 11:12:43;;;;;;;2.53;2.43;;;;;;;10.06;100.00;96893.06;5037540;28;20211;-58
2023/04/16 11:15:11;;;;;;;2.77;2.60;;;;;;;10.12;100.00;96895.19;5042780;28;20207;-58
2023/04/16 11:17:40;;;;;;;3.00;2.80;;;;;;;10.26;100.00;96889.56;5045098;28;20238;-60
2023/04/16 11:20:08;;;;;;;3.40;3.10;;;;;;;10.32;100.00;96894.31;5037134;28;20200;-59
2023/04/16 11:22:35;;;;;;;3.20;3.10;;;;;;;10.38;100.00;96893.75;5050446;28;20222;-58
2023/04/16 11:25:02;;;;;;;3.10;3.00;;;;;;;10.46;100.00;96901.00;5037332;28;20594;-59
2023/04/16 11:27:30;;;;;;;3.20;3.00;;;;;;;10.47;100.00;96892.97;5051599;28;20203;-58
2023/04/16 11:29:58;;;;;;;2.77;2.67;;;;;;;10.53;100.00;96891.56;5049135;28;20212;-59
2023/04/16 11:32:25;;;;;;;2.90;2.80;;;;;;;10.45;100.00;96902.00;5050116;28;20210;-59
2023/04/16 11:34:52;;;;;;;3.03;2.83;;;;;;;10.36;100.00;96889.59;5036301;28;20322;-58